Huvudsida
METAR-TAF:

METAR-TAF

Flygplatser :

Sankt Michels flygplats

Sankt Michel, Finland

latitud: 61-44N, longitud: 027-18E, höjd: 138 m

Aktuellt väderrapport

Denna rapport gjordes för 32 minuter sedan, klockan 12:20 UTC
Vind 5 kt från sydväst, varierande mellan syd/sydost och väst
Temperatur 22°C
Fuktighet 65%
Tryck 1014 hPa
Sikt 10 km eller mer
Inga moln under 1 500 m eller inga cumulonimbus

METAR: EFMI 181220Z AUTO 23005KT 160V280 CAVOK 22/15 Q1014

Tid: 15:52 (12:52 UTC)


TAF: saknas

Aktuella väderrapporter och prognoser från 4000 flygplatser (METAR- och TAF-rapporter).

De tillgängliga stationerna syns som gula och röda prickar på kartan.

För musen över prickarna för att se namnen på stationerna.

Klicka sedan för att få väderrapporter och prognoser.

För att ändra kartan: Klicka på de gröna knapparna med ett svart kors på för att zooma in; den gröna knappen med ett streck på för att zooma ut; eller på de gröna pilarna för angränsande kartor.


METAR-TAF: